sensor_id;sensor_type;location;lat;lon;timestamp;pressure;altitude;pressure_sealevel;temperature;humidity
36380;BME280;22411;53.016;18.632;2023-02-28T00:00:47;102250.47;;;-2.48;100.00
36380;BME280;22411;53.016;18.632;2023-02-28T00:03:18;102257.22;;;-2.52;100.00
36380;BME280;22411;53.016;18.632;2023-02-28T00:05:44;102254.59;;;-2.56;100.00
36380;BME280;22411;53.016;18.632;2023-02-28T00:08:10;102251.16;;;-2.58;100.00
36380;BME280;22411;53.016;18.632;2023-02-28T00:10:36;102251.94;;;-2.66;100.00
36380;BME280;22411;53.016;18.632;2023-02-28T00:13:04;102258.69;;;-2.68;100.00
36380;BME280;22411;53.016;18.632;2023-02-28T00:15:31;102254.38;;;-2.72;100.00
36380;BME280;22411;53.016;18.632;2023-02-28T00:17:58;102258.59;;;-2.74;100.00
36380;BME280;22411;53.016;18.632;2023-02-28T00:20:24;102259.41;;;-2.75;100.00
36380;BME280;22411;53.016;18.632;2023-02-28T00:22:52;102262.78;;;-2.76;100.00
36380;BME280;22411;53.016;18.632;2023-02-28T00:25:21;102261.91;;;-2.79;100.00
36380;BME280;22411;53.016;18.632;2023-02-28T00:27:47;102261.03;;;-2.80;100.00
36380;BME280;22411;53.016;18.632;2023-02-28T00:30:16;102261.00;;;-2.83;100.00
36380;BME280;22411;53.016;18.632;2023-02-28T00:32:43;102255.84;;;-2.89;100.00
36380;BME280;22411;53.016;18.632;2023-02-28T00:35:09;102260.84;;;-2.92;100.00
36380;BME280;22411;53.016;18.632;2023-02-28T00:37:36;102262.53;;;-2.94;100.00
36380;BME280;22411;53.016;18.632;2023-02-28T00:40:03;102254.06;;;-2.95;100.00
36380;BME280;22411;53.016;18.632;2023-02-28T00:42:35;102261.69;;;-2.95;100.00
36380;BME280;22411;53.016;18.632;2023-02-28T00:45:02;102260.84;;;-2.92;100.00
36380;BME280;22411;53.016;18.632;2023-02-28T00:47:30;102265.09;;;-2.93;100.00
36380;BME280;22411;53.016;18.632;2023-02-28T00:49:56;102265.06;;;-2.94;100.00
36380;BME280;22411;53.016;18.632;2023-02-28T00:52:22;102266.72;;;-2.96;100.00
36380;BME280;22411;53.016;18.632;2023-02-28T00:54:48;102265.03;;;-2.96;100.00
36380;BME280;22411;53.016;18.632;2023-02-28T00:57:14;102266.72;;;-2.96;100.00
36380;BME280;22411;53.016;18.632;2023-02-28T00:59:40;102274.31;;;-2.96;100.00
36380;BME280;22411;53.016;18.632;2023-02-28T01:02:06;102263.25;;;-3.01;100.00
36380;BME280;22411;53.016;18.632;2023-02-28T01:04:32;102270.84;;;-3.03;100.00
36380;BME280;22411;53.016;18.632;2023-02-28T01:06:58;102268.25;;;-3.06;100.00
36380;BME280;22411;53.016;18.632;2023-02-28T01:09:24;102266.50;;;-3.10;100.00
36380;BME280;22411;53.016;18.632;2023-02-28T01:11:51;102269.00;;;-3.11;100.00
36380;BME280;22411;53.016;18.632;2023-02-28T01:14:17;102276.63;;;-3.11;100.00
36380;BME280;22411;53.016;18.632;2023-02-28T01:16:43;102273.28;;;-3.10;100.00
36380;BME280;22411;53.016;18.632;2023-02-28T01:19:09;102274.97;;;-3.09;100.00
36380;BME280;22411;53.016;18.632;2023-02-28T01:21:36;102273.28;;;-3.10;100.00
36380;BME280;22411;53.016;18.632;2023-02-28T01:24:03;102267.28;;;-3.16;100.00
36380;BME280;22411;53.016;18.632;2023-02-28T01:26:29;102266.34;;;-3.19;100.00
36380;BME280;22411;53.016;18.632;2023-02-28T01:28:55;102267.22;;;-3.17;100.00
36380;BME280;22411;53.016;18.632;2023-02-28T01:31:22;102262.97;;;-3.20;100.00
36380;BME280;22411;53.016;18.632;2023-02-28T01:33:48;102262.97;;;-3.20;100.00
36380;BME280;22411;53.016;18.632;2023-02-28T01:36:17;102260.44;;;-3.20;100.00
36380;BME280;22411;53.016;18.632;2023-02-28T01:38:44;102258.69;;;-3.22;100.00
36380;BME280;22411;53.016;18.632;2023-02-28T01:41:22;102262.06;;;-3.23;100.00
36380;BME280;22411;53.016;18.632;2023-02-28T01:46:15;102260.28;;;-3.27;100.00
36380;BME280;22411;53.016;18.632;2023-02-28T01:48:46;102259.41;;;-3.31;100.00
36380;BME280;22411;53.016;18.632;2023-02-28T01:51:21;102257.66;;;-3.33;100.00
36380;BME280;22411;53.016;18.632;2023-02-28T01:53:53;102261.88;;;-3.34;100.00
36380;BME280;22411;53.016;18.632;2023-02-28T01:56:24;102262.78;;;-3.30;100.00
36380;BME280;22411;53.016;18.632;2023-02-28T01:58:53;102257.72;;;-3.32;100.00
36380;BME280;22411;53.016;18.632;2023-02-28T02:01:23;102255.97;;;-3.33;100.00
36380;BME280;22411;53.016;18.632;2023-02-28T02:03:55;102250.06;;;-3.33;100.00
36380;BME280;22411;53.016;18.632;2023-02-28T02:06:25;102256.78;;;-3.37;100.00
36380;BME280;22411;53.016;18.632;2023-02-28T02:08:53;102255.88;;;-3.39;100.00
36380;BME280;22411;53.016;18.632;2023-02-28T02:11:20;102253.31;;;-3.40;100.00
36380;BME280;22411;53.016;18.632;2023-02-28T02:38:33;102262.06;;;-3.73;100.00
36380;BME280;22411;53.016;18.632;2023-02-28T02:46:45;102257.63;;;-3.83;100.00
36380;BME280;22411;53.016;18.632;2023-02-28T02:49:22;102263.56;;;-3.81;100.00
36380;BME280;22411;53.016;18.632;2023-02-28T02:51:51;102261.88;;;-3.82;100.00
36380;BME280;22411;53.016;18.632;2023-02-28T02:54:31;102272.84;;;-3.83;100.00
36380;BME280;22411;53.016;18.632;2023-02-28T02:57:04;102266.91;;;-3.84;100.00
36380;BME280;22411;53.016;18.632;2023-02-28T02:59:32;102272.78;;;-3.86;100.00
36380;BME280;22411;53.016;18.632;2023-02-28T03:02:04;102275.34;;;-3.85;100.00
36380;BME280;22411;53.016;18.632;2023-02-28T03:04:38;102268.63;;;-3.83;100.00
36380;BME280;22411;53.016;18.632;2023-02-28T03:07:06;102266.84;;;-3.87;100.00
36380;BME280;22411;53.016;18.632;2023-02-28T03:09:34;102267.59;;;-3.91;100.00
36380;BME280;22411;53.016;18.632;2023-02-28T03:12:01;102271.81;;;-3.91;100.00
36380;BME280;22411;53.016;18.632;2023-02-28T03:14:33;102264.22;;;-3.93;100.00
36380;BME280;22411;53.016;18.632;2023-02-28T03:17:40;102271.78;;;-3.95;100.00
36380;BME280;22411;53.016;18.632;2023-02-28T03:23:21;102267.47;;;-4.00;100.00
36380;BME280;22411;53.016;18.632;2023-02-28T03:29:18;102264.94;;;-4.00;100.00
36380;BME280;22411;53.016;18.632;2023-02-28T03:35:20;102279.91;;;-4.11;100.00
36380;BME280;22411;53.016;18.632;2023-02-28T03:38:03;102278.97;;;-4.16;100.00
36380;BME280;22411;53.016;18.632;2023-02-28T03:40:33;102274.69;;;-4.17;100.00
36380;BME280;22411;53.016;18.632;2023-02-28T03:43:03;102277.28;;;-4.15;100.00
36380;BME280;22411;53.016;18.632;2023-02-28T03:45:33;102277.28;;;-4.15;100.00
36380;BME280;22411;53.016;18.632;2023-02-28T03:48:15;102279.91;;;-4.11;100.00
36380;BME280;22411;53.016;18.632;2023-02-28T03:50:45;102277.41;;;-4.08;100.00
36380;BME280;22411;53.016;18.632;2023-02-28T03:55:45;102281.56;;;-4.11;100.00
36380;BME280;22411;53.016;18.632;2023-02-28T03:58:28;102279.84;;;-4.12;100.00
36380;BME280;22411;53.016;18.632;2023-02-28T04:01:00;102277.28;;;-4.15;100.00
36380;BME280;22411;53.016;18.632;2023-02-28T04:03:36;102278.13;;;-4.15;100.00
36380;BME280;22411;53.016;18.632;2023-02-28T04:06:04;102277.28;;;-4.15;100.00
36380;BME280;22411;53.016;18.632;2023-02-28T04:08:31;102287.31;;;-4.20;100.00
36380;BME280;22411;53.016;18.632;2023-02-28T04:11:08;102294.88;;;-4.22;100.00
36380;BME280;22411;53.016;18.632;2023-02-28T04:13:40;102290.59;;;-4.24;100.00
36380;BME280;22411;53.016;18.632;2023-02-28T04:16:07;102286.38;;;-4.24;100.00
36380;BME280;22411;53.016;18.632;2023-02-28T04:18:38;102292.25;;;-4.26;100.00
36380;BME280;22411;53.016;18.632;2023-02-28T04:21:05;102291.44;;;-4.25;100.00
36380;BME280;22411;53.016;18.632;2023-02-28T04:23:31;102298.91;;;-4.30;100.00
36380;BME280;22411;53.016;18.632;2023-02-28T04:25:57;102301.44;;;-4.31;100.00
36380;BME280;22411;53.016;18.632;2023-02-28T04:28:23;102300.59;;;-4.32;100.00
36380;BME280;22411;53.016;18.632;2023-02-28T04:30:56;102311.50;;;-4.33;100.00
36380;BME280;22411;53.016;18.632;2023-02-28T04:33:23;102306.44;;;-4.33;100.00
36380;BME280;22411;53.016;18.632;2023-02-28T04:36:07;102309.75;;;-4.37;100.00
36380;BME280;22411;53.016;18.632;2023-02-28T04:38:36;102306.31;;;-4.39;100.00
36380;BME280;22411;53.016;18.632;2023-02-28T04:41:02;102310.50;;;-4.41;100.00
36380;BME280;22411;53.016;18.632;2023-02-28T04:43:30;102307.94;;;-4.42;100.00
36380;BME280;22411;53.016;18.632;2023-02-28T04:45:57;102309.56;;;-4.44;100.00
36380;BME280;22411;53.016;18.632;2023-02-28T04:48:24;102311.25;;;-4.45;100.00
36380;BME280;22411;53.016;18.632;2023-02-28T04:50:51;102312.94;;;-4.44;100.00
36380;BME280;22411;53.016;18.632;2023-02-28T04:53:17;102307.88;;;-4.44;100.00
36380;BME280;22411;53.016;18.632;2023-02-28T04:55:44;102312.09;;;-4.44;100.00
36380;BME280;22411;53.016;18.632;2023-02-28T04:58:10;102312.06;;;-4.46;100.00
36380;BME280;22411;53.016;18.632;2023-02-28T05:00:35;102313.75;;;-4.47;100.00
36380;BME280;22411;53.016;18.632;2023-02-28T05:03:01;102317.06;;;-4.49;100.00
36380;BME280;22411;53.016;18.632;2023-02-28T05:05:27;102312.78;;;-4.52;100.00
36380;BME280;22411;53.016;18.632;2023-02-28T05:07:54;102311.09;;;-4.53;100.00
36380;BME280;22411;53.016;18.632;2023-02-28T05:10:24;102308.59;;;-4.51;100.00
36380;BME280;22411;53.016;18.632;2023-02-28T05:12:52;102309.44;;;-4.51;100.00
36380;BME280;22411;53.016;18.632;2023-02-28T05:15:21;102306.94;;;-4.49;100.00
36380;BME280;22411;53.016;18.632;2023-02-28T05:17:47;102306.94;;;-4.49;100.00
36380;BME280;22411;53.016;18.632;2023-02-28T05:20:13;102309.53;;;-4.46;100.00
36380;BME280;22411;53.016;18.632;2023-02-28T05:22:40;102308.69;;;-4.47;100.00
36380;BME280;22411;53.016;18.632;2023-02-28T05:25:06;102312.91;;;-4.47;100.00
36380;BME280;22411;53.016;18.632;2023-02-28T05:27:35;102317.13;;;-4.46;100.00
36380;BME280;22411;53.016;18.632;2023-02-28T05:30:01;102314.59;;;-4.46;100.00
36380;BME280;22411;53.016;18.632;2023-02-28T05:32:29;102318.09;;;-4.41;100.00
36380;BME280;22411;53.016;18.632;2023-02-28T05:34:55;102313.91;;;-4.39;100.00
36380;BME280;22411;53.016;18.632;2023-02-28T05:37:21;102307.22;;;-4.37;100.00
36380;BME280;22411;53.016;18.632;2023-02-28T05:39:47;102314.91;;;-4.32;100.00
36380;BME280;22411;53.016;18.632;2023-02-28T05:42:15;102315.00;;;-4.28;100.00
36380;BME280;22411;53.016;18.632;2023-02-28T05:44:45;102320.03;;;-4.29;100.00
36380;BME280;22411;53.016;18.632;2023-02-28T05:47:11;102321.78;;;-4.27;100.00
36380;BME280;22411;53.016;18.632;2023-02-28T05:49:41;102321.84;;;-4.24;100.00
36380;BME280;22411;53.016;18.632;2023-02-28T05:52:08;102320.97;;;-4.24;100.00
36380;BME280;22411;53.016;18.632;2023-02-28T05:54:34;102324.34;;;-4.25;100.00
36380;BME280;22411;53.016;18.632;2023-02-28T05:57:00;102328.56;;;-4.26;100.00
36380;BME280;22411;53.016;18.632;2023-02-28T05:59:26;102320.13;;;-4.25;100.00
36380;BME280;22411;53.016;18.632;2023-02-28T06:01:52;102322.75;;;-4.20;100.00
36380;BME280;22411;53.016;18.632;2023-02-28T06:04:20;102324.56;;;-4.14;100.00
36380;BME280;22411;53.016;18.632;2023-02-28T06:06:50;102330.59;;;-4.09;100.00
36380;BME280;22411;53.016;18.632;2023-02-28T06:09:17;102333.16;;;-4.06;100.00
36380;BME280;22411;53.016;18.632;2023-02-28T06:11:47;102341.66;;;-4.04;100.00
36380;BME280;22411;53.016;18.632;2023-02-28T06:14:18;102340.84;;;-4.03;100.00
36380;BME280;22411;53.016;18.632;2023-02-28T06:16:59;102342.59;;;-4.01;100.00
36380;BME280;22411;53.016;18.632;2023-02-28T06:19:26;102345.19;;;-3.98;100.00
36380;BME280;22411;53.016;18.632;2023-02-28T06:21:53;102343.63;;;-3.91;100.00
36380;BME280;22411;53.016;18.632;2023-02-28T06:24:21;102350.53;;;-3.84;100.00
36380;BME280;22411;53.016;18.632;2023-02-28T06:26:48;102345.59;;;-3.78;100.00
36380;BME280;22411;53.016;18.632;2023-02-28T06:29:15;102342.34;;;-3.71;100.00
36380;BME280;22411;53.016;18.632;2023-02-28T06:31:45;102343.38;;;-3.61;100.00
36380;BME280;22411;53.016;18.632;2023-02-28T06:34:16;102340.09;;;-3.55;100.00
36380;BME280;22411;53.016;18.632;2023-02-28T06:36:43;102340.31;;;-3.45;100.00
36380;BME280;22411;53.016;18.632;2023-02-28T06:39:10;102340.47;;;-3.37;100.00
36380;BME280;22411;53.016;18.632;2023-02-28T06:41:36;102340.59;;;-3.29;100.00
36380;BME280;22411;53.016;18.632;2023-02-28T06:44:16;102338.16;;;-3.22;100.00
36380;BME280;22411;53.016;18.632;2023-02-28T06:46:44;102335.63;;;-3.22;100.00
36380;BME280;22411;53.016;18.632;2023-02-28T06:49:11;102336.53;;;-3.18;100.00
36380;BME280;22411;53.016;18.632;2023-02-28T06:51:39;102344.25;;;-3.12;100.00
36380;BME280;22411;53.016;18.632;2023-02-28T06:54:05;102343.50;;;-3.08;100.00
36380;BME280;22411;53.016;18.632;2023-02-28T06:56:35;102346.94;;;-3.04;100.00
36380;BME280;22411;53.016;18.632;2023-02-28T06:59:01;102348.72;;;-3.00;100.00
36380;BME280;22411;53.016;18.632;2023-02-28T07:01:26;102358.88;;;-2.97;100.00
36380;BME280;22411;53.016;18.632;2023-02-28T07:03:54;102365.59;;;-3.01;100.00
36380;BME280;22411;53.016;18.632;2023-02-28T07:06:21;102362.28;;;-2.97;100.00
36380;BME280;22411;53.016;18.632;2023-02-28T07:08:52;102356.44;;;-2.91;100.00
36380;BME280;22411;53.016;18.632;2023-02-28T07:11:19;102369.22;;;-2.85;100.00
36380;BME280;22411;53.016;18.632;2023-02-28T07:13:45;102373.50;;;-2.84;100.00
36380;BME280;22411;53.016;18.632;2023-02-28T07:16:13;102365.91;;;-2.84;100.00
36380;BME280;22411;53.016;18.632;2023-02-28T07:18:39;102366.00;;;-2.76;100.00
36380;BME280;22411;53.016;18.632;2023-02-28T07:21:07;102365.25;;;-2.71;100.00
36380;BME280;22411;53.016;18.632;2023-02-28T07:23:35;102370.47;;;-2.61;100.00
36380;BME280;22411;53.016;18.632;2023-02-28T07:26:04;102372.34;;;-2.50;100.00
36380;BME280;22411;53.016;18.632;2023-02-28T07:28:31;102369.03;;;-2.46;100.00
36380;BME280;22411;53.016;18.632;2023-02-28T07:30:57;102372.47;;;-2.41;100.00
36380;BME280;22411;53.016;18.632;2023-02-28T07:33:23;102373.44;;;-2.32;100.00
36380;BME280;22411;53.016;18.632;2023-02-28T07:35:49;102376.88;;;-2.29;100.00
36380;BME280;22411;53.016;18.632;2023-02-28T07:38:15;102375.34;;;-2.19;100.00
36380;BME280;22411;53.016;18.632;2023-02-28T07:40:41;102374.56;;;-2.14;100.00
36380;BME280;22411;53.016;18.632;2023-02-28T07:43:07;102376.31;;;-2.09;100.00
36380;BME280;22411;53.016;18.632;2023-02-28T07:45:33;102376.47;;;-1.97;100.00
36380;BME280;22411;53.016;18.632;2023-02-28T07:48:01;102375.75;;;-1.87;100.00
36380;BME280;22411;53.016;18.632;2023-02-28T07:50:27;102374.19;;;-1.76;100.00
36380;BME280;22411;53.016;18.632;2023-02-28T07:52:58;102372.66;;;-1.63;100.00
36380;BME280;22411;53.016;18.632;2023-02-28T07:55:24;102377.03;;;-1.51;100.00
36380;BME280;22411;53.016;18.632;2023-02-28T07:57:50;102372.06;;;-1.39;100.00
36380;BME280;22411;53.016;18.632;2023-02-28T08:00:16;102373.81;;;-1.37;100.00
36380;BME280;22411;53.016;18.632;2023-02-28T08:02:42;102372.22;;;-1.25;100.00
36380;BME280;22411;53.016;18.632;2023-02-28T08:05:08;102367.28;;;-1.10;100.00
36380;BME280;22411;53.016;18.632;2023-02-28T08:07:35;102369.00;;;-1.09;100.00
36380;BME280;22411;53.016;18.632;2023-02-28T08:10:01;102373.38;;;-0.94;100.00
36380;BME280;22411;53.016;18.632;2023-02-28T08:12:27;102377.63;;;-0.92;100.00
36380;BME280;22411;53.016;18.632;2023-02-28T08:14:53;102371.78;;;-0.83;100.00
36380;BME280;22411;53.016;18.632;2023-02-28T08:17:19;102378.69;;;-0.65;100.00
36380;BME280;22411;53.016;18.632;2023-02-28T08:19:46;102384.66;;;-0.62;100.00
36380;BME280;22411;53.016;18.632;2023-02-28T08:22:13;102383.84;;;-0.58;100.00
36380;BME280;22411;53.016;18.632;2023-02-28T08:24:41;102378.00;;;-0.46;100.00
36380;BME280;22411;53.016;18.632;2023-02-28T08:27:08;102387.41;;;-0.36;100.00
36380;BME280;22411;53.016;18.632;2023-02-28T08:29:37;102384.97;;;-0.20;100.00
36380;BME280;22411;53.016;18.632;2023-02-28T08:32:04;102381.63;;;-0.07;100.00
36380;BME280;22411;53.016;18.632;2023-02-28T08:34:31;102383.44;;;0.12;100.00
36380;BME280;22411;53.016;18.632;2023-02-28T08:36:57;102389.44;;;0.31;100.00
36380;BME280;22411;53.016;18.632;2023-02-28T08:39:23;102389.53;;;0.51;100.00
36380;BME280;22411;53.016;18.632;2023-02-28T08:41:49;102382.75;;;0.68;100.00
36380;BME280;22411;53.016;18.632;2023-02-28T08:44:15;102386.19;;;0.81;100.00
36380;BME280;22411;53.016;18.632;2023-02-28T08:46:41;102381.09;;;0.84;100.00
36380;BME280;22411;53.016;18.632;2023-02-28T08:49:10;102385.38;;;0.96;100.00
36380;BME280;22411;53.016;18.632;2023-02-28T08:51:36;102375.16;;;1.02;100.00
36380;BME280;22411;53.016;18.632;2023-02-28T08:54:03;102390.50;;;1.08;100.00
36380;BME280;22411;53.016;18.632;2023-02-28T08:56:30;102384.53;;;1.09;100.00
36380;BME280;22411;53.016;18.632;2023-02-28T08:58:56;102393.91;;;1.18;100.00
36380;BME280;22411;53.016;18.632;2023-02-28T09:01:29;102391.34;;;1.28;100.00
36380;BME280;22411;53.016;18.632;2023-02-28T09:03:56;102406.69;;;1.54;100.00
36380;BME280;22411;53.016;18.632;2023-02-28T09:06:25;102397.28;;;1.63;100.00
36380;BME280;22411;53.016;18.632;2023-02-28T09:08:52;102405.72;;;2.00;100.00
36380;BME280;22411;53.016;18.632;2023-02-28T09:11:18;102416.66;;;2.49;100.00
36380;BME280;22411;53.016;18.632;2023-02-28T09:13:44;102417.03;;;3.26;100.00
36380;BME280;22411;53.016;18.632;2023-02-28T09:16:13;102415.63;;;4.61;100.00
36380;BME280;22411;53.016;18.632;2023-02-28T09:18:40;102412.97;;;6.63;100.00
36380;BME280;22411;53.016;18.632;2023-02-28T09:21:09;102406.91;;;8.93;85.43
36380;BME280;22411;53.016;18.632;2023-02-28T09:23:35;102404.25;;;10.89;69.08
36380;BME280;22411;53.016;18.632;2023-02-28T09:26:04;102411.22;;;12.50;58.60
36380;BME280;22411;53.016;18.632;2023-02-28T09:28:30;102415.97;;;13.49;51.18
36380;BME280;22411;53.016;18.632;2023-02-28T09:30:56;102428.66;;;15.02;45.33
36380;BME280;22411;53.016;18.632;2023-02-28T09:33:26;102422.44;;;16.36;39.66
36380;BME280;22411;53.016;18.632;2023-02-28T09:35:59;102409.94;;;17.61;33.86
36380;BME280;22411;53.016;18.632;2023-02-28T09:38:25;102413.91;;;18.91;30.86
36380;BME280;22411;53.016;18.632;2023-02-28T09:41:03;102418.91;;;19.87;28.10
36380;BME280;22411;53.016;18.632;2023-02-28T09:43:34;102411.59;;;20.46;27.84
36380;BME280;22411;53.016;18.632;2023-02-28T09:46:34;102406.13;;;20.70;25.82
36380;BME280;22411;53.016;18.632;2023-02-28T09:49:06;102407.47;;;21.18;24.68
36380;BME280;22411;53.016;18.632;2023-02-28T09:52:00;102409.13;;;20.98;23.96
36380;BME280;22411;53.016;18.632;2023-02-28T09:54:28;102400.31;;;20.55;24.34
36380;BME280;22411;53.016;18.632;2023-02-28T09:57:06;102406.91;;;19.49;24.61
36380;BME280;22411;53.016;18.632;2023-02-28T10:02:46;102406.16;;;16.45;27.92
36380;BME280;22411;53.016;18.632;2023-02-28T10:05:22;102409.25;;;14.60;31.53
36380;BME280;22411;53.016;18.632;2023-02-28T10:08:05;102400.25;;;12.99;34.32
36380;BME280;22411;53.016;18.632;2023-02-28T10:10:44;102408.06;;;11.65;37.54
36380;BME280;22411;53.016;18.632;2023-02-28T10:14:06;102394.91;;;10.85;40.30
36380;BME280;22411;53.016;18.632;2023-02-28T10:16:32;102392.94;;;10.00;43.09
36380;BME280;22411;53.016;18.632;2023-02-28T10:19:13;102389.59;;;9.48;44.42
36380;BME280;22411;53.016;18.632;2023-02-28T10:21:53;102379.88;;;9.03;47.00
36380;BME280;22411;53.016;18.632;2023-02-28T10:26:47;102380.34;;;8.30;52.25
36380;BME280;22411;53.016;18.632;2023-02-28T10:29:14;102367.50;;;8.27;53.35
36380;BME280;22411;53.016;18.632;2023-02-28T10:31:41;102376.97;;;8.28;51.97
36380;BME280;22411;53.016;18.632;2023-02-28T10:34:07;102377.13;;;8.22;50.22
36380;BME280;22411;53.016;18.632;2023-02-28T10:36:38;102377.53;;;8.08;49.98
36380;BME280;22411;53.016;18.632;2023-02-28T10:42:03;102377.84;;;8.86;49.53
36380;BME280;22411;53.016;18.632;2023-02-28T10:44:30;102375.59;;;10.02;44.44
36380;BME280;22411;53.016;18.632;2023-02-28T10:46:57;102371.94;;;11.79;38.41
36380;BME280;22411;53.016;18.632;2023-02-28T10:49:26;102367.16;;;14.19;32.72
36380;BME280;22411;53.016;18.632;2023-02-28T10:51:56;102361.38;;;15.80;30.69
36380;BME280;22411;53.016;18.632;2023-02-28T10:54:31;102362.22;;;17.56;27.63
36380;BME280;22411;53.016;18.632;2023-02-28T10:57:20;102367.06;;;18.85;25.49
36380;BME280;22411;53.016;18.632;2023-02-28T10:59:51;102362.19;;;19.38;24.79
36380;BME280;22411;53.016;18.632;2023-02-28T11:02:36;102355.41;;;19.57;24.66
36380;BME280;22411;53.016;18.632;2023-02-28T11:08:06;102359.59;;;21.95;22.18
36380;BME280;22411;53.016;18.632;2023-02-28T11:10:37;102356.25;;;23.01;21.02
36380;BME280;22411;53.016;18.632;2023-02-28T11:13:03;102364.88;;;22.93;20.81
36380;BME280;22411;53.016;18.632;2023-02-28T11:15:32;102354.19;;;24.06;20.34
36380;BME280;22411;53.016;18.632;2023-02-28T11:20:48;102353.34;;;27.38;17.85
36380;BME280;22411;53.016;18.632;2023-02-28T11:23:17;102355.38;;;26.78;17.96
36380;BME280;22411;53.016;18.632;2023-02-28T11:25:52;102364.94;;;27.92;16.37
36380;BME280;22411;53.016;18.632;2023-02-28T11:28:34;102356.38;;;27.26;16.72
36380;BME280;22411;53.016;18.632;2023-02-28T11:31:17;102348.78;;;27.94;16.38
36380;BME280;22411;53.016;18.632;2023-02-28T11:33:50;102347.47;;;29.04;16.12
36380;BME280;22411;53.016;18.632;2023-02-28T11:36:24;102337.72;;;30.50;14.95
36380;BME280;22411;53.016;18.632;2023-02-28T11:38:55;102342.09;;;31.07;14.68
36380;BME280;22411;53.016;18.632;2023-02-28T11:50:26;102330.25;;;29.51;15.20
36380;BME280;22411;53.016;18.632;2023-02-28T11:53:01;102326.53;;;29.82;14.60
36380;BME280;22411;53.016;18.632;2023-02-28T11:55:36;102327.53;;;29.95;13.96
36380;BME280;22411;53.016;18.632;2023-02-28T12:01:01;102320.50;;;29.29;14.34
36380;BME280;22411;53.016;18.632;2023-02-28T12:03:36;102324.06;;;28.91;14.16
36380;BME280;22411;53.016;18.632;2023-02-28T12:08:59;102312.50;;;29.14;14.40
36380;BME280;22411;53.016;18.632;2023-02-28T12:20:05;102314.59;;;25.96;16.03
36380;BME280;22411;53.016;18.632;2023-02-28T12:22:49;102314.22;;;25.75;16.59
36380;BME280;22411;53.016;18.632;2023-02-28T12:27:57;102311.47;;;23.73;17.78
36380;BME280;22411;53.016;18.632;2023-02-28T12:30:35;102305.94;;;24.66;17.82
36380;BME280;22411;53.016;18.632;2023-02-28T12:33:12;102306.59;;;25.88;17.08
36380;BME280;22411;53.016;18.632;2023-02-28T12:35:55;102301.31;;;27.19;16.22
36380;BME280;22411;53.016;18.632;2023-02-28T12:38:27;102291.28;;;27.76;15.71
36380;BME280;22411;53.016;18.632;2023-02-28T12:41:01;102299.06;;;27.86;15.67
36380;BME280;22411;53.016;18.632;2023-02-28T12:43:41;102298.31;;;27.61;15.87
36380;BME280;22411;53.016;18.632;2023-02-28T12:46:25;102293.06;;;27.84;15.66
36380;BME280;22411;53.016;18.632;2023-02-28T12:48:56;102292.53;;;29.10;14.98
36380;BME280;22411;53.016;18.632;2023-02-28T12:51:25;102289.09;;;30.18;14.51
36380;BME280;22411;53.016;18.632;2023-02-28T12:56:42;102285.63;;;30.03;13.89
36380;BME280;22411;53.016;18.632;2023-02-28T12:59:25;102283.41;;;29.34;14.25
36380;BME280;22411;53.016;18.632;2023-02-28T13:02:15;102278.16;;;29.55;14.40
36380;BME280;22411;53.016;18.632;2023-02-28T13:10:05;102274.78;;;26.29;15.51
36380;BME280;22411;53.016;18.632;2023-02-28T13:12:34;102247.03;;;24.54;16.44
36380;BME280;22411;53.016;18.632;2023-02-28T13:17:30;102253.06;;;20.94;18.95
36380;BME280;22411;53.016;18.632;2023-02-28T13:19:58;102240.00;;;18.74;21.27
36380;BME280;22411;53.016;18.632;2023-02-28T13:24:55;102244.69;;;16.06;24.27
36380;BME280;22411;53.016;18.632;2023-02-28T13:29:52;102239.63;;;14.30;27.33
36380;BME280;22411;53.016;18.632;2023-02-28T13:40:36;102227.03;;;12.05;30.05
36380;BME280;22411;53.016;18.632;2023-02-28T13:42:49;102226.25;;;11.46;30.59
36380;BME280;22411;53.016;18.632;2023-02-28T13:45:28;102216.28;;;11.17;31.82
36380;BME280;22411;53.016;18.632;2023-02-28T13:48:00;102215.97;;;11.24;32.68
36380;BME280;22411;53.016;18.632;2023-02-28T13:50:36;102211.03;;;11.76;31.89
36380;BME280;22411;53.016;18.632;2023-02-28T14:06:53;102185.06;;;10.99;35.30
36380;BME280;22411;53.016;18.632;2023-02-28T14:09:38;102185.63;;;10.86;35.96
36380;BME280;22411;53.016;18.632;2023-02-28T14:15:38;102177.22;;;10.40;34.07
36380;BME280;22411;53.016;18.632;2023-02-28T14:18:29;102164.06;;;10.24;35.65
36380;BME280;22411;53.016;18.632;2023-02-28T14:34:46;102168.97;;;11.68;32.38
36380;BME280;22411;53.016;18.632;2023-02-28T14:37:27;102156.59;;;11.73;30.55
36380;BME280;22411;53.016;18.632;2023-02-28T14:39:54;102147.19;;;11.90;31.22
36380;BME280;22411;53.016;18.632;2023-02-28T14:42:33;102146.72;;;11.63;31.36
36380;BME280;22411;53.016;18.632;2023-02-28T14:45:00;102146.66;;;11.26;32.07
36380;BME280;22411;53.016;18.632;2023-02-28T14:47:35;102144.13;;;11.25;33.09
36380;BME280;22411;53.016;18.632;2023-02-28T14:50:03;102154.00;;;11.55;33.38
36380;BME280;22411;53.016;18.632;2023-02-28T14:52:32;102159.16;;;11.37;32.02
36380;BME280;22411;53.016;18.632;2023-02-28T14:55:03;102158.72;;;11.09;32.93
36380;BME280;22411;53.016;18.632;2023-02-28T14:57:32;102157.91;;;10.88;33.22
36380;BME280;22411;53.016;18.632;2023-02-28T15:02:42;102168.09;;;11.11;32.44
36380;BME280;22411;53.016;18.632;2023-02-28T15:05:27;102164.00;;;10.87;32.78
36380;BME280;22411;53.016;18.632;2023-02-28T15:08:12;102169.84;;;10.92;32.27
36380;BME280;22411;53.016;18.632;2023-02-28T15:11:06;102164.78;;;10.68;32.98